Lakewood Village, Texas
Current Conditions -  °F | °C
As of 11:53 PM on Wednesday 22 Oct 2014 (Local Time) from KDTO Reporting Station
Few Clouds Few Clouds  
Wind Chill: 70°   Ceiling: Unl
Heat Index: 70°   Visibility: 10mi
Dew Point: 56°   Wind: 8mph
Humidity: 61%   Direction: 140°SE
Pressure: 30.11"   Gusts: NA
Location:  33.1913°N, 96.9829°W
Report Text: KDTO 230453Z AUTO 14007KT 10SM FEW100 21/13 A3011 RMK AO2 SLP187 T02110133
Loading
Personal Weather Stations






























Interactive Weather Map
Tropical Storm Tracking
New forecast layout! Learn more

10-Day Weather Forecast

Advertisements
Track Severe Weather on mobile